sensor_id;sensor_type;location;lat;lon;timestamp;pressure;altitude;pressure_sealevel;temperature;humidity
71004;BME280;59025;42.050;-8.660;2022-11-20T00:00:25;101719.03;;;12.85;100.00
71004;BME280;59025;42.050;-8.660;2022-11-20T00:02:52;101717.47;;;12.90;100.00
71004;BME280;59025;42.050;-8.660;2022-11-20T00:05:20;101709.13;;;12.88;100.00
71004;BME280;59025;42.050;-8.660;2022-11-20T00:07:49;101723.06;;;12.93;100.00
71004;BME280;59025;42.050;-8.660;2022-11-20T00:10:17;101720.69;;;12.92;100.00
71004;BME280;59025;42.050;-8.660;2022-11-20T00:12:44;101720.75;;;12.99;100.00
71004;BME280;59025;42.050;-8.660;2022-11-20T00:15:12;101716.94;;;12.95;100.00
71004;BME280;59025;42.050;-8.660;2022-11-20T00:17:39;101697.44;;;12.92;100.00
71004;BME280;59025;42.050;-8.660;2022-11-20T00:20:08;101708.22;;;12.96;100.00
71004;BME280;59025;42.050;-8.660;2022-11-20T00:22:35;101685.31;;;12.93;100.00
71004;BME280;59025;42.050;-8.660;2022-11-20T00:25:05;101695.66;;;12.93;100.00
71004;BME280;59025;42.050;-8.660;2022-11-20T00:27:32;101694.84;;;12.92;100.00
71004;BME280;59025;42.050;-8.660;2022-11-20T00:30:00;101700.81;;;12.93;100.00
71004;BME280;59025;42.050;-8.660;2022-11-20T00:32:28;101712.13;;;12.92;100.00
71004;BME280;59025;42.050;-8.660;2022-11-20T00:34:55;101712.94;;;12.92;100.00
71004;BME280;59025;42.050;-8.660;2022-11-20T00:37:23;101713.22;;;12.97;100.00
71004;BME280;59025;42.050;-8.660;2022-11-20T00:39:50;101698.91;;;13.01;100.00
71004;BME280;59025;42.050;-8.660;2022-11-20T00:42:19;101699.97;;;13.07;100.00
71004;BME280;59025;42.050;-8.660;2022-11-20T00:44:47;101690.19;;;13.02;100.00
71004;BME280;59025;42.050;-8.660;2022-11-20T00:47:14;101697.94;;;13.02;100.00
71004;BME280;59025;42.050;-8.660;2022-11-20T00:49:42;101693.75;;;13.01;100.00
71004;BME280;59025;42.050;-8.660;2022-11-20T00:52:09;101693.75;;;13.01;100.00
71004;BME280;59025;42.050;-8.660;2022-11-20T00:54:37;101682.56;;;12.94;100.00
71004;BME280;59025;42.050;-8.660;2022-11-20T00:57:04;101696.91;;;12.97;100.00
71004;BME280;59025;42.050;-8.660;2022-11-20T00:59:34;101683.91;;;12.90;100.00
71004;BME280;59025;42.050;-8.660;2022-11-20T01:02:01;101682.41;;;12.96;100.00
71004;BME280;59025;42.050;-8.660;2022-11-20T01:04:29;101673.03;;;12.95;100.00
71004;BME280;59025;42.050;-8.660;2022-11-20T01:06:56;101685.59;;;12.98;100.00
71004;BME280;59025;42.050;-8.660;2022-11-20T01:09:24;101670.97;;;12.90;100.00
71004;BME280;59025;42.050;-8.660;2022-11-20T01:11:51;101670.63;;;12.93;100.00
71004;BME280;59025;42.050;-8.660;2022-11-20T01:14:19;101668.03;;;12.93;100.00
71004;BME280;59025;42.050;-8.660;2022-11-20T01:16:50;101671.88;;;12.97;100.00
71004;BME280;59025;42.050;-8.660;2022-11-20T01:19:19;101672.06;;;12.96;100.00
71004;BME280;59025;42.050;-8.660;2022-11-20T01:21:49;101655.31;;;12.92;100.00
71004;BME280;59025;42.050;-8.660;2022-11-20T01:24:19;101658.75;;;12.99;100.00
71004;BME280;59025;42.050;-8.660;2022-11-20T01:26:48;101651.81;;;12.99;100.00
71004;BME280;59025;42.050;-8.660;2022-11-20T01:29:17;101649.06;;;13.01;100.00
71004;BME280;59025;42.050;-8.660;2022-11-20T01:31:45;101662.81;;;13.08;100.00
71004;BME280;59025;42.050;-8.660;2022-11-20T01:34:16;101662.44;;;13.11;100.00
71004;BME280;59025;42.050;-8.660;2022-11-20T01:36:44;101658.06;;;13.11;100.00
71004;BME280;59025;42.050;-8.660;2022-11-20T01:39:14;101646.38;;;13.15;100.00
71004;BME280;59025;42.050;-8.660;2022-11-20T01:41:43;101643.56;;;13.10;100.00
71004;BME280;59025;42.050;-8.660;2022-11-20T01:44:53;101647.72;;;13.11;100.00
71004;BME280;59025;42.050;-8.660;2022-11-20T01:47:25;101658.66;;;13.13;100.00
71004;BME280;59025;42.050;-8.660;2022-11-20T01:49:59;101653.13;;;13.16;100.00
71004;BME280;59025;42.050;-8.660;2022-11-20T01:52:34;101654.16;;;13.22;100.00
71004;BME280;59025;42.050;-8.660;2022-11-20T01:55:05;101656.38;;;13.25;100.00
71004;BME280;59025;42.050;-8.660;2022-11-20T01:57:35;101648.78;;;13.17;100.00
71004;BME280;59025;42.050;-8.660;2022-11-20T02:00:07;101654.53;;;13.19;100.00
71004;BME280;59025;42.050;-8.660;2022-11-20T02:02:36;101650.78;;;13.21;100.00
71004;BME280;59025;42.050;-8.660;2022-11-20T02:05:12;101639.44;;;13.22;100.00
71004;BME280;59025;42.050;-8.660;2022-11-20T02:07:41;101650.19;;;13.26;100.00
71004;BME280;59025;42.050;-8.660;2022-11-20T02:10:10;101646.38;;;13.22;100.00
71004;BME280;59025;42.050;-8.660;2022-11-20T02:12:38;101639.09;;;13.25;100.00
71004;BME280;59025;42.050;-8.660;2022-11-20T02:15:23;101636.94;;;13.35;100.00
71004;BME280;59025;42.050;-8.660;2022-11-20T02:17:50;101636.16;;;13.41;100.00
71004;BME280;59025;42.050;-8.660;2022-11-20T02:20:19;101633.16;;;13.38;100.00
71004;BME280;59025;42.050;-8.660;2022-11-20T02:22:50;101634.13;;;13.30;100.00
71004;BME280;59025;42.050;-8.660;2022-11-20T02:25:21;101627.56;;;13.28;100.00
71004;BME280;59025;42.050;-8.660;2022-11-20T02:27:50;101629.53;;;13.26;100.00
71004;BME280;59025;42.050;-8.660;2022-11-20T02:30:18;101642.25;;;13.27;100.00
71004;BME280;59025;42.050;-8.660;2022-11-20T02:32:46;101639.44;;;13.22;100.00
71004;BME280;59025;42.050;-8.660;2022-11-20T02:35:39;101617.38;;;13.20;100.00
71004;BME280;59025;42.050;-8.660;2022-11-20T02:38:07;101620.78;;;13.27;100.00
71004;BME280;59025;42.050;-8.660;2022-11-20T02:40:37;101617.22;;;13.28;100.00
71004;BME280;59025;42.050;-8.660;2022-11-20T02:43:04;101617.97;;;13.22;100.00
71004;BME280;59025;42.050;-8.660;2022-11-20T02:45:32;101629.53;;;13.26;100.00
71004;BME280;59025;42.050;-8.660;2022-11-20T02:48:00;101624.78;;;13.29;100.00
71004;BME280;59025;42.050;-8.660;2022-11-20T02:50:28;101613.66;;;13.29;100.00
71004;BME280;59025;42.050;-8.660;2022-11-20T02:52:55;101619.66;;;13.36;100.00
71004;BME280;59025;42.050;-8.660;2022-11-20T02:55:23;101615.66;;;13.33;100.00
71004;BME280;59025;42.050;-8.660;2022-11-20T02:57:52;101611.06;;;13.29;100.00
71004;BME280;59025;42.050;-8.660;2022-11-20T03:00:19;101611.44;;;13.26;100.00
71004;BME280;59025;42.050;-8.660;2022-11-20T03:02:47;101608.47;;;13.29;100.00
71004;BME280;59025;42.050;-8.660;2022-11-20T03:05:14;101604.09;;;13.29;100.00
71004;BME280;59025;42.050;-8.660;2022-11-20T03:07:43;101607.72;;;13.35;100.00
71004;BME280;59025;42.050;-8.660;2022-11-20T03:10:11;101600.91;;;13.27;100.00
71004;BME280;59025;42.050;-8.660;2022-11-20T03:12:39;101598.34;;;13.27;100.00
71004;BME280;59025;42.050;-8.660;2022-11-20T03:15:09;101589.78;;;13.27;100.00
71004;BME280;59025;42.050;-8.660;2022-11-20T03:17:37;101596.75;;;13.32;100.00
71004;BME280;59025;42.050;-8.660;2022-11-20T03:20:06;101597.78;;;13.38;100.00
71004;BME280;59025;42.050;-8.660;2022-11-20T03:22:34;101595.78;;;13.34;100.00
71004;BME280;59025;42.050;-8.660;2022-11-20T03:25:02;101591.03;;;13.37;100.00
71004;BME280;59025;42.050;-8.660;2022-11-20T03:27:32;101599.78;;;13.36;100.00
71004;BME280;59025;42.050;-8.660;2022-11-20T03:30:01;101599.56;;;13.38;100.00
71004;BME280;59025;42.050;-8.660;2022-11-20T03:32:30;101592.81;;;13.37;100.00
71004;BME280;59025;42.050;-8.660;2022-11-20T03:34:57;101600.56;;;13.37;100.00
71004;BME280;59025;42.050;-8.660;2022-11-20T03:37:25;101602.16;;;13.38;100.00
71004;BME280;59025;42.050;-8.660;2022-11-20T03:39:52;101607.31;;;13.38;100.00
71004;BME280;59025;42.050;-8.660;2022-11-20T03:42:20;101606.78;;;13.42;100.00
71004;BME280;59025;42.050;-8.660;2022-11-20T03:45:05;101605.16;;;13.41;100.00
71004;BME280;59025;42.050;-8.660;2022-11-20T03:47:34;101592.66;;;13.45;100.00
71004;BME280;59025;42.050;-8.660;2022-11-20T03:50:03;101596.44;;;13.42;100.00
71004;BME280;59025;42.050;-8.660;2022-11-20T03:52:31;101598.44;;;13.47;100.00
71004;BME280;59025;42.050;-8.660;2022-11-20T03:54:58;101592.22;;;13.41;100.00
71004;BME280;59025;42.050;-8.660;2022-11-20T03:57:26;101596.06;;;13.52;100.00
71004;BME280;59025;42.050;-8.660;2022-11-20T03:59:53;101596.28;;;13.57;100.00
71004;BME280;59025;42.050;-8.660;2022-11-20T04:02:21;101600.66;;;13.56;100.00
71004;BME280;59025;42.050;-8.660;2022-11-20T04:04:50;101584.69;;;13.46;100.00
71004;BME280;59025;42.050;-8.660;2022-11-20T04:07:17;101582.19;;;13.59;100.00
71004;BME280;59025;42.050;-8.660;2022-11-20T04:09:45;101581.19;;;13.60;100.00
71004;BME280;59025;42.050;-8.660;2022-11-20T04:12:12;101590.53;;;13.61;100.00
71004;BME280;59025;42.050;-8.660;2022-11-20T04:14:40;101586.34;;;13.60;100.00
71004;BME280;59025;42.050;-8.660;2022-11-20T04:17:07;101591.34;;;13.62;100.00
71004;BME280;59025;42.050;-8.660;2022-11-20T04:19:35;101594.34;;;13.65;100.00
71004;BME280;59025;42.050;-8.660;2022-11-20T04:22:04;101597.09;;;13.63;100.00
71004;BME280;59025;42.050;-8.660;2022-11-20T04:24:32;101590.16;;;13.64;100.00
71004;BME280;59025;42.050;-8.660;2022-11-20T04:26:59;101591.13;;;13.63;100.00
71004;BME280;59025;42.050;-8.660;2022-11-20T04:29:27;101594.13;;;13.66;100.00
71004;BME280;59025;42.050;-8.660;2022-11-20T04:31:54;101588.16;;;13.66;100.00
71004;BME280;59025;42.050;-8.660;2022-11-20T04:34:22;101591.16;;;13.69;100.00
71004;BME280;59025;42.050;-8.660;2022-11-20T04:36:49;101586.34;;;13.66;100.00
71004;BME280;59025;42.050;-8.660;2022-11-20T04:39:18;101592.94;;;13.69;100.00
71004;BME280;59025;42.050;-8.660;2022-11-20T04:41:46;101590.75;;;13.66;100.00
71004;BME280;59025;42.050;-8.660;2022-11-20T04:44:13;101588.34;;;13.64;100.00
71004;BME280;59025;42.050;-8.660;2022-11-20T04:46:42;101577.22;;;13.64;100.00
71004;BME280;59025;42.050;-8.660;2022-11-20T04:49:10;101581.19;;;13.66;100.00
71004;BME280;59025;42.050;-8.660;2022-11-20T04:51:38;101582.59;;;13.69;100.00
71004;BME280;59025;42.050;-8.660;2022-11-20T04:54:06;101584.00;;;13.71;100.00
71004;BME280;59025;42.050;-8.660;2022-11-20T04:56:35;101584.00;;;13.71;100.00
71004;BME280;59025;42.050;-8.660;2022-11-20T04:59:03;101585.59;;;13.73;100.00
71004;BME280;59025;42.050;-8.660;2022-11-20T05:01:30;101584.78;;;13.72;100.00
71004;BME280;59025;42.050;-8.660;2022-11-20T05:03:58;101581.22;;;13.73;100.00
71004;BME280;59025;42.050;-8.660;2022-11-20T05:06:25;101586.00;;;13.76;100.00
71004;BME280;59025;42.050;-8.660;2022-11-20T05:08:53;101591.97;;;13.76;100.00
71004;BME280;59025;42.050;-8.660;2022-11-20T05:11:21;101589.00;;;13.79;100.00
71004;BME280;59025;42.050;-8.660;2022-11-20T05:13:51;101594.38;;;13.78;100.00
71004;BME280;59025;42.050;-8.660;2022-11-20T05:16:20;101597.75;;;13.78;100.00
71004;BME280;59025;42.050;-8.660;2022-11-20T05:18:49;101591.59;;;13.79;100.00
71004;BME280;59025;42.050;-8.660;2022-11-20T05:21:17;101587.19;;;13.80;100.00
71004;BME280;59025;42.050;-8.660;2022-11-20T05:23:45;101592.78;;;13.83;100.00
71004;BME280;59025;42.050;-8.660;2022-11-20T05:26:15;101589.00;;;13.86;100.00
71004;BME280;59025;42.050;-8.660;2022-11-20T05:28:42;101587.41;;;13.85;100.00
71004;BME280;59025;42.050;-8.660;2022-11-20T05:31:13;101587.22;;;13.86;100.00
71004;BME280;59025;42.050;-8.660;2022-11-20T05:33:42;101592.22;;;13.88;100.00
71004;BME280;59025;42.050;-8.660;2022-11-20T05:36:11;101595.56;;;13.88;100.00
71004;BME280;59025;42.050;-8.660;2022-11-20T05:38:39;101598.38;;;13.93;100.00
71004;BME280;59025;42.050;-8.660;2022-11-20T05:41:08;101590.81;;;13.92;100.00
71004;BME280;59025;42.050;-8.660;2022-11-20T05:43:37;101600.19;;;13.93;100.00
71004;BME280;59025;42.050;-8.660;2022-11-20T05:46:06;101595.78;;;13.93;100.00
71004;BME280;59025;42.050;-8.660;2022-11-20T05:48:36;101591.25;;;13.95;100.00
71004;BME280;59025;42.050;-8.660;2022-11-20T05:51:05;101599.59;;;13.97;100.00
71004;BME280;59025;42.050;-8.660;2022-11-20T05:53:34;101596.19;;;13.97;100.00
71004;BME280;59025;42.050;-8.660;2022-11-20T05:56:03;101601.19;;;13.98;100.00
71004;BME280;59025;42.050;-8.660;2022-11-20T05:58:32;101593.81;;;13.95;100.00
71004;BME280;59025;42.050;-8.660;2022-11-20T06:01:05;101602.56;;;13.94;100.00
71004;BME280;59025;42.050;-8.660;2022-11-20T06:03:32;101605.38;;;13.93;100.00
71004;BME280;59025;42.050;-8.660;2022-11-20T06:06:02;101609.72;;;13.92;100.00
71004;BME280;59025;42.050;-8.660;2022-11-20T06:08:30;101597.78;;;13.91;100.00
71004;BME280;59025;42.050;-8.660;2022-11-20T06:10:58;101592.22;;;13.88;100.00
71004;BME280;59025;42.050;-8.660;2022-11-20T06:13:25;101589.00;;;13.79;100.00
71004;BME280;59025;42.050;-8.660;2022-11-20T06:15:53;101594.34;;;13.71;100.00
71004;BME280;59025;42.050;-8.660;2022-11-20T06:18:21;101611.84;;;13.69;100.00
71004;BME280;59025;42.050;-8.660;2022-11-20T06:20:48;101614.81;;;13.66;100.00
71004;BME280;59025;42.050;-8.660;2022-11-20T06:23:17;101623.78;;;13.64;100.00
71004;BME280;59025;42.050;-8.660;2022-11-20T06:25:45;101629.72;;;13.64;100.00
71004;BME280;59025;42.050;-8.660;2022-11-20T06:28:12;101638.84;;;13.60;100.00
71004;BME280;59025;42.050;-8.660;2022-11-20T06:30:44;101638.47;;;13.63;100.00
71004;BME280;59025;42.050;-8.660;2022-11-20T06:33:12;101642.25;;;13.61;100.00
71004;BME280;59025;42.050;-8.660;2022-11-20T06:35:39;101646.06;;;13.65;100.00
71004;BME280;59025;42.050;-8.660;2022-11-20T06:38:07;101641.88;;;13.70;100.00
71004;BME280;59025;42.050;-8.660;2022-11-20T06:40:38;101640.50;;;13.74;100.00
71004;BME280;59025;42.050;-8.660;2022-11-20T06:43:06;101644.69;;;13.75;100.00
71004;BME280;59025;42.050;-8.660;2022-11-20T06:45:34;101647.69;;;13.73;100.00
71004;BME280;59025;42.050;-8.660;2022-11-20T06:48:01;101654.63;;;13.72;100.00
71004;BME280;59025;42.050;-8.660;2022-11-20T06:50:29;101657.25;;;13.78;100.00
71004;BME280;59025;42.050;-8.660;2022-11-20T06:53:00;101647.09;;;13.77;100.00
71004;BME280;59025;42.050;-8.660;2022-11-20T06:55:29;101645.50;;;13.76;100.00
71004;BME280;59025;42.050;-8.660;2022-11-20T06:57:58;101656.03;;;13.74;100.00
71004;BME280;59025;42.050;-8.660;2022-11-20T07:00:25;101658.84;;;13.79;100.00
71004;BME280;59025;42.050;-8.660;2022-11-20T07:02:53;101655.03;;;13.75;100.00
71004;BME280;59025;42.050;-8.660;2022-11-20T07:05:20;101648.88;;;13.76;100.00
71004;BME280;59025;42.050;-8.660;2022-11-20T07:07:48;101646.69;;;13.80;100.00
71004;BME280;59025;42.050;-8.660;2022-11-20T07:10:16;101650.06;;;13.74;100.00
71004;BME280;59025;42.050;-8.660;2022-11-20T07:12:49;101671.91;;;13.71;100.00
71004;BME280;59025;42.050;-8.660;2022-11-20T07:15:19;101671.31;;;13.69;100.00
71004;BME280;59025;42.050;-8.660;2022-11-20T07:17:47;101672.91;;;13.70;100.00
71004;BME280;59025;42.050;-8.660;2022-11-20T07:20:16;101665.16;;;13.70;100.00
71004;BME280;59025;42.050;-8.660;2022-11-20T07:22:43;101669.56;;;13.70;100.00
71004;BME280;59025;42.050;-8.660;2022-11-20T07:25:11;101679.09;;;13.69;100.00
71004;BME280;59025;42.050;-8.660;2022-11-20T07:27:38;101676.50;;;13.69;100.00
71004;BME280;59025;42.050;-8.660;2022-11-20T07:30:07;101675.50;;;13.70;100.00
71004;BME280;59025;42.050;-8.660;2022-11-20T07:32:36;101677.50;;;13.75;100.00
71004;BME280;59025;42.050;-8.660;2022-11-20T07:35:04;101677.50;;;13.68;100.00
71004;BME280;59025;42.050;-8.660;2022-11-20T07:37:34;101685.25;;;13.75;100.00
71004;BME280;59025;42.050;-8.660;2022-11-20T07:40:02;101673.38;;;13.80;100.00
71004;BME280;59025;42.050;-8.660;2022-11-20T07:42:30;101672.56;;;13.80;100.00
71004;BME280;59025;42.050;-8.660;2022-11-20T07:44:57;101676.78;;;13.87;100.00
71004;BME280;59025;42.050;-8.660;2022-11-20T07:47:25;101679.16;;;13.89;100.00
71004;BME280;59025;42.050;-8.660;2022-11-20T07:49:54;101680.75;;;13.90;100.00
71004;BME280;59025;42.050;-8.660;2022-11-20T07:52:22;101690.34;;;13.89;100.00
71004;BME280;59025;42.050;-8.660;2022-11-20T07:54:49;101688.34;;;13.91;100.00
71004;BME280;59025;42.050;-8.660;2022-11-20T07:57:17;101690.34;;;13.89;100.00
71004;BME280;59025;42.050;-8.660;2022-11-20T07:59:44;101695.06;;;13.86;100.00
71004;BME280;59025;42.050;-8.660;2022-11-20T08:02:12;101694.50;;;13.90;100.00
71004;BME280;59025;42.050;-8.660;2022-11-20T08:04:40;101684.34;;;13.89;100.00
71004;BME280;59025;42.050;-8.660;2022-11-20T08:07:10;101699.06;;;13.88;100.00
71004;BME280;59025;42.050;-8.660;2022-11-20T08:09:40;101704.84;;;13.90;100.00
71004;BME280;59025;42.050;-8.660;2022-11-20T08:12:20;101708.63;;;13.94;100.00
71004;BME280;59025;42.050;-8.660;2022-11-20T08:15:26;101708.84;;;13.99;100.00
71004;BME280;59025;42.050;-8.660;2022-11-20T08:17:59;101715.44;;;13.95;100.00
71004;BME280;59025;42.050;-8.660;2022-11-20T08:20:27;101703.09;;;13.97;100.00
71004;BME280;59025;42.050;-8.660;2022-11-20T08:22:59;101706.31;;;14.06;100.00
71004;BME280;59025;42.050;-8.660;2022-11-20T08:25:28;101710.25;;;14.02;100.00
71004;BME280;59025;42.050;-8.660;2022-11-20T08:27:57;101721.59;;;14.01;100.00
71004;BME280;59025;42.050;-8.660;2022-11-20T08:30:25;101731.38;;;14.05;100.00
71004;BME280;59025;42.050;-8.660;2022-11-20T08:32:53;101734.41;;;14.09;100.00
71004;BME280;59025;42.050;-8.660;2022-11-20T08:35:21;101732.00;;;14.14;100.00
71004;BME280;59025;42.050;-8.660;2022-11-20T08:37:49;101732.81;;;14.14;100.00
71004;BME280;59025;42.050;-8.660;2022-11-20T08:40:18;101730.81;;;14.16;100.00
71004;BME280;59025;42.050;-8.660;2022-11-20T08:42:46;101731.81;;;14.15;100.00
71004;BME280;59025;42.050;-8.660;2022-11-20T08:45:14;101725.84;;;14.15;100.00
71004;BME280;59025;42.050;-8.660;2022-11-20T08:47:42;101725.63;;;14.16;100.00
71004;BME280;59025;42.050;-8.660;2022-11-20T08:50:11;101731.63;;;14.17;100.00
71004;BME280;59025;42.050;-8.660;2022-11-20T08:52:39;101737.44;;;14.19;100.00
71004;BME280;59025;42.050;-8.660;2022-11-20T08:55:10;101735.47;;;14.27;100.00
71004;BME280;59025;42.050;-8.660;2022-11-20T08:57:40;101747.81;;;14.25;100.00
71004;BME280;59025;42.050;-8.660;2022-11-20T09:00:09;101736.50;;;14.33;100.00
71004;BME280;59025;42.050;-8.660;2022-11-20T09:02:37;101729.50;;;14.33;100.00
71004;BME280;59025;42.050;-8.660;2022-11-20T09:08:28;101738.34;;;14.52;100.00
71004;BME280;59025;42.050;-8.660;2022-11-20T09:10:56;101740.94;;;14.58;100.00
71004;BME280;59025;42.050;-8.660;2022-11-20T09:13:28;101750.72;;;14.69;100.00
71004;BME280;59025;42.050;-8.660;2022-11-20T09:16:05;101743.56;;;14.71;100.00
71004;BME280;59025;42.050;-8.660;2022-11-20T09:18:34;101752.13;;;14.78;100.00
71004;BME280;59025;42.050;-8.660;2022-11-20T09:21:04;101762.69;;;14.83;100.00
71004;BME280;59025;42.050;-8.660;2022-11-20T09:23:34;101765.91;;;14.85;100.00
71004;BME280;59025;42.050;-8.660;2022-11-20T09:26:03;101776.28;;;14.85;100.00
71004;BME280;59025;42.050;-8.660;2022-11-20T09:28:33;101788.78;;;14.82;100.00
71004;BME280;59025;42.050;-8.660;2022-11-20T09:31:05;101789.41;;;14.84;100.00
71004;BME280;59025;42.050;-8.660;2022-11-20T09:33:33;101788.78;;;14.82;100.00
71004;BME280;59025;42.050;-8.660;2022-11-20T09:36:00;101796.81;;;14.93;100.00
71004;BME280;59025;42.050;-8.660;2022-11-20T09:38:28;101782.25;;;15.05;100.00
71004;BME280;59025;42.050;-8.660;2022-11-20T09:40:58;101801.19;;;15.12;100.00
71004;BME280;59025;42.050;-8.660;2022-11-20T09:46:54;101778.06;;;15.04;100.00
71004;BME280;59025;42.050;-8.660;2022-11-20T09:49:30;101787.47;;;14.99;100.00
71004;BME280;59025;42.050;-8.660;2022-11-20T09:52:14;101795.00;;;15.00;100.00
71004;BME280;59025;42.050;-8.660;2022-11-20T09:54:44;101804.38;;;15.01;100.00
71004;BME280;59025;42.050;-8.660;2022-11-20T09:57:13;101812.75;;;14.97;100.00
71004;BME280;59025;42.050;-8.660;2022-11-20T09:59:46;101805.59;;;14.99;100.00
71004;BME280;59025;42.050;-8.660;2022-11-20T10:02:27;101810.59;;;15.07;100.00
71004;BME280;59025;42.050;-8.660;2022-11-20T10:04:58;101803.41;;;15.15;100.00
71004;BME280;59025;42.050;-8.660;2022-11-20T10:07:30;101796.44;;;15.09;100.00
71004;BME280;59025;42.050;-8.660;2022-11-20T10:09:59;101801.63;;;15.16;100.00
71004;BME280;59025;42.050;-8.660;2022-11-20T10:12:35;101805.41;;;15.13;100.00
71004;BME280;59025;42.050;-8.660;2022-11-20T10:15:23;101807.81;;;15.08;100.00
71004;BME280;59025;42.050;-8.660;2022-11-20T10:18:22;101812.97;;;15.15;100.00
71004;BME280;59025;42.050;-8.660;2022-11-20T10:21:08;101806.81;;;15.22;100.00
71004;BME280;59025;42.050;-8.660;2022-11-20T10:27:54;101805.44;;;15.39;100.00
71004;BME280;59025;42.050;-8.660;2022-11-20T10:30:23;101820.78;;;15.60;100.00
71004;BME280;59025;42.050;-8.660;2022-11-20T10:32:58;101809.00;;;15.71;100.00
71004;BME280;59025;42.050;-8.660;2022-11-20T10:35:35;101788.22;;;15.84;100.00
71004;BME280;59025;42.050;-8.660;2022-11-20T10:38:07;101783.44;;;15.81;100.00
71004;BME280;59025;42.050;-8.660;2022-11-20T10:40:51;101810.59;;;15.72;100.00
71004;BME280;59025;42.050;-8.660;2022-11-20T10:43:40;101803.44;;;15.61;100.00
71004;BME280;59025;42.050;-8.660;2022-11-20T10:46:14;101814.59;;;15.55;100.00
71004;BME280;59025;42.050;-8.660;2022-11-20T10:48:43;101823.38;;;15.73;100.00
71004;BME280;59025;42.050;-8.660;2022-11-20T10:54:41;101809.19;;;15.76;100.00
71004;BME280;59025;42.050;-8.660;2022-11-20T10:57:20;101810.19;;;15.81;100.00
71004;BME280;59025;42.050;-8.660;2022-11-20T11:00:00;101784.25;;;15.81;100.00
71004;BME280;59025;42.050;-8.660;2022-11-20T11:02:35;101789.81;;;15.78;100.00
71004;BME280;59025;42.050;-8.660;2022-11-20T11:05:14;101783.44;;;15.74;100.00
71004;BME280;59025;42.050;-8.660;2022-11-20T11:07:46;101793.44;;;15.77;100.00
71004;BME280;59025;42.050;-8.660;2022-11-20T11:10:24;101799.44;;;15.78;100.00
71004;BME280;59025;42.050;-8.660;2022-11-20T11:12:53;101788.47;;;15.63;100.00
71004;BME280;59025;42.050;-8.660;2022-11-20T11:15:28;101782.69;;;15.54;100.00
71004;BME280;59025;42.050;-8.660;2022-11-20T11:17:56;101777.50;;;15.61;100.00
71004;BME280;59025;42.050;-8.660;2022-11-20T11:23:46;101779.69;;;15.57;100.00
71004;BME280;59025;42.050;-8.660;2022-11-20T11:26:21;101770.09;;;15.51;100.00
71004;BME280;59025;42.050;-8.660;2022-11-20T11:28:54;101765.72;;;15.58;100.00
71004;BME280;59025;42.050;-8.660;2022-11-20T11:31:25;101755.31;;;15.71;100.00
71004;BME280;59025;42.050;-8.660;2022-11-20T11:34:04;101737.94;;;15.78;100.00
71004;BME280;59025;42.050;-8.660;2022-11-20T11:36:33;101726.34;;;15.87;100.00
71004;BME280;59025;42.050;-8.660;2022-11-20T11:39:03;101717.28;;;15.96;100.00
71004;BME280;59025;42.050;-8.660;2022-11-20T11:41:33;101726.47;;;15.99;100.00
71004;BME280;59025;42.050;-8.660;2022-11-20T11:44:15;101722.28;;;15.98;100.00
71004;BME280;59025;42.050;-8.660;2022-11-20T11:47:02;101733.63;;;16.10;100.00
71004;BME280;59025;42.050;-8.660;2022-11-20T11:49:32;101718.59;;;16.18;100.00
71004;BME280;59025;42.050;-8.660;2022-11-20T11:52:04;101718.19;;;16.21;100.00
71004;BME280;59025;42.050;-8.660;2022-11-20T11:54:40;101716.44;;;16.15;100.00
71004;BME280;59025;42.050;-8.660;2022-11-20T11:57:15;101719.03;;;16.15;100.00
71004;BME280;59025;42.050;-8.660;2022-11-20T11:59:54;101725.81;;;16.16;100.00
71004;BME280;59025;42.050;-8.660;2022-11-20T12:02:34;101728.97;;;16.25;100.00
71004;BME280;59025;42.050;-8.660;2022-11-20T12:05:10;101730.69;;;16.37;100.00
71004;BME280;59025;42.050;-8.660;2022-11-20T12:07:46;101731.47;;;16.38;100.00
71004;BME280;59025;42.050;-8.660;2022-11-20T12:10:20;101722.91;;;16.37;100.00
71004;BME280;59025;42.050;-8.660;2022-11-20T12:12:53;101721.66;;;16.46;100.00
71004;BME280;59025;42.050;-8.660;2022-11-20T12:15:28;101721.44;;;16.54;100.00
71004;BME280;59025;42.050;-8.660;2022-11-20T12:17:56;101719.16;;;16.64;100.00
71004;BME280;59025;42.050;-8.660;2022-11-20T12:20:29;101712.50;;;16.75;100.00
71004;BME280;59025;42.050;-8.660;2022-11-20T12:23:06;101708.47;;;16.79;100.00
71004;BME280;59025;42.050;-8.660;2022-11-20T12:25:38;101710.81;;;16.87;100.00
71004;BME280;59025;42.050;-8.660;2022-11-20T12:28:19;101710.16;;;16.91;100.00
71004;BME280;59025;42.050;-8.660;2022-11-20T12:31:03;101718.31;;;16.95;100.00
71004;BME280;59025;42.050;-8.660;2022-11-20T12:33:47;101700.78;;;16.90;100.00
71004;BME280;59025;42.050;-8.660;2022-11-20T12:36:27;101706.50;;;16.99;100.00
71004;BME280;59025;42.050;-8.660;2022-11-20T12:39:12;101704.34;;;16.96;100.00
71004;BME280;59025;42.050;-8.660;2022-11-20T12:41:48;101709.22;;;16.86;100.00
71004;BME280;59025;42.050;-8.660;2022-11-20T12:45:10;101710.28;;;16.78;100.00
71004;BME280;59025;42.050;-8.660;2022-11-20T12:48:03;101700.56;;;16.92;100.00
71004;BME280;59025;42.050;-8.660;2022-11-20T12:50:42;101700.66;;;17.03;100.00
71004;BME280;59025;42.050;-8.660;2022-11-20T12:53:25;101695.56;;;17.15;100.00
71004;BME280;59025;42.050;-8.660;2022-11-20T12:56:01;101693.53;;;17.17;100.00
71004;BME280;59025;42.050;-8.660;2022-11-20T12:58:37;101692.66;;;17.23;100.00
71004;BME280;59025;42.050;-8.660;2022-11-20T13:01:17;101684.09;;;17.22;100.00
71004;BME280;59025;42.050;-8.660;2022-11-20T13:04:08;101681.03;;;17.25;100.00
71004;BME280;59025;42.050;-8.660;2022-11-20T13:06:40;101681.00;;;17.32;100.00